This is the latest recevied weather packets stored in our database for station/object K4GSL. If no packets are shown the sender has not sent any weather packets the latest 10 day(s).
| Time | Temp. | Humidity | Pressure | Rain* | Wind** | Luminosity | Snow |
|---|---|---|---|---|---|---|---|
| 1777655375 | 15° C | 80% | 1021.4 hPa | 0 mm | - | 160 W/m² | - |
| 1777655072 | 15° C | 80% | 1021.4 hPa | 0 mm | - | 166 W/m² | - |
| 1777654770 | 15° C | 81% | 1021 hPa | 0 mm | - | 214 W/m² | - |
| 1777654468 | 13.89° C | 83% | 1021.5 hPa | 0 mm | - | 154 W/m² | - |
| 1777654165 | 13.89° C | 83% | 1021.4 hPa | 0 mm | - | 156 W/m² | - |
| 1777653863 | 13.89° C | 83% | 1021.5 hPa | 0 mm | - | 115 W/m² | - |
| 1777653559 | 12.78° C | 86% | 1021.6 hPa | 0 mm | - | 111 W/m² | - |
| 1777653255 | 13.33° C | 86% | 1021.6 hPa | 0 mm | - | 106 W/m² | - |
| 1777652952 | 12.78° C | 86% | 1021.5 hPa | 0 mm | - | 110 W/m² | - |
| 1777652649 | 12.78° C | 86% | 1021.6 hPa | 0 mm | - | 103 W/m² | - |
| 1777652346 | 12.78° C | 88% | 1021.8 hPa | 0 mm | - | 102 W/m² | - |
| 1777652043 | 12.78° C | 88% | 1021.5 hPa | 0 mm | - | 105 W/m² | - |
| 1777651739 | 12.22° C | 89% | 1021.7 hPa | 0 mm | - | 116 W/m² | - |
| 1777651436 | 12.22° C | 91% | 1021.6 hPa | 0 mm | - | 120 W/m² | - |
| 1777651134 | 11.67° C | 91% | 1021.9 hPa | 0 mm | - | 121 W/m² | - |
| 1777650830 | 11.67° C | 90% | 1021.8 hPa | 0 mm | - | 102 W/m² | - |
| 1777650527 | 11.67° C | 91% | 1021.7 hPa | 0 mm | - | 93 W/m² | - |
| 1777650224 | 11.67° C | 90% | 1021.9 hPa | 0 mm | - | 86 W/m² | - |
| 1777649921 | 11.67° C | 90% | 1022 hPa | 0 mm | - | 80 W/m² | - |
| 1777649619 | 11.67° C | 91% | 1021.9 hPa | 0 mm | - | 87 W/m² | - |
| 1777649314 | 11.67° C | 91% | 1021.8 hPa | 0 mm | - | 90 W/m² | - |
| 1777649012 | 11.11° C | 92% | 1022.1 hPa | 0 mm | - | 99 W/m² | - |
| 1777648709 | 11.11° C | 92% | 1022 hPa | 0 mm | - | 101 W/m² | - |
| 1777648405 | 11.11° C | 93% | 1021.9 hPa | 0 mm | - | 95 W/m² | - |
| 1777648102 | 11.11° C | 94% | 1021.9 hPa | 0 mm | - | 92 W/m² | - |
* Rain latest hour (hover to see other rain measurements)
** Current wind speed in m/s (hover to see current wind gust speed)